Darstellungsparameter: Aktuell verwendete Einstellungen:
Skalierung der Graphiken ... ?
xyx+y,   Skalierungsfaktor:      Skalierung: Modus: x, Faktor: 1
Darstellungszeitraum ... ?
Vom - - bis: - -   Zeitraum: 01.01.2004 - 31.12.2004
Min/Max/Avg-Anzeige ... ?
Zeige MMA aktuell
Zeige MMA Monat
Zeige MMA alles
Zeige --A aktuell
Zeige --A Monat
Zeige --A alles
Keine MMA-Anzeige
MMA:
Keine MMA-Graphiken
MMA-Basis: 01.01.2004 - 31.12.2004
Quicknavigation für Darstellung... ?
Tage:      1T, 2T, 3T, 5T -1T -2T -3T -5T +1T +2T +3T +5T
Wochen: 1W, 2W, 3W -1W -2W -3W +1W +2W +3W
Monate: 1M, 3M, 6M -1M -3M -6M +1M +3M +6M
Jahre:    1J, 3J, 5J, 10J -1J -3J -5J -10J +1J +3J +5J +10J
Nutze für die Darstellung ... ?
Originaldaten oder ...
Mittelwerte Minima Maxima auf...
Stundenbasis Tagesbasis Wochenbasis
Monatsbasis Jahresbasis      Datenbasis: Mittelwerte auf Tagesbasis
Darstellen als:
Statistik (Auto) Statistik J:M      Darstellung:
Zur Graphik,    zurück zur Übersicht aller Sensoren.
 
Tabellarische Datenbersicht: ?
 
Sensor: Nr:Datum:Temp:Abs-Feuchte:Windchill:Wind:
Aussen-T/F 1 01-01-2004 00:00:00 -2.37115 C 3.12 g/m*3 -2.37 C 0 km/h
2 02-01-2004 00:00:00 -2.12212 C 2.04 g/m*3 -2.12 C 0 km/h
3 03-01-2004 00:00:00 -5.68621 C 2.3 g/m*3 -5.69 C 0 km/h
4 04-01-2004 00:00:00 -2.61969 C 2.92 g/m*3 -2.62 C 0 km/h
5 05-01-2004 00:00:00 1.15917 C 4.37 g/m*3 1.16 C 0 km/h
6 06-01-2004 00:00:00 2.9925 C 5.17 g/m*3 2.99 C 0 km/h
7 07-01-2004 00:00:00 5.665 C 5.73 g/m*3 5.67 C 0 km/h
8 08-01-2004 00:00:00 4.4437 C 5.17 g/m*3 4.44 C 0 km/h
9 09-01-2004 00:00:00 5.33898 C 5.6 g/m*3 5.34 C 0 km/h
10 10-01-2004 00:00:00 4.62667 C 4.95 g/m*3 4.63 C 0 km/h
11 11-01-2004 00:00:00 9.1975 C 6.62 g/m*3 9.2 C 0 km/h
12 12-01-2004 00:00:00 5.775 C 5.22 g/m*3 5.78 C 0 km/h
13 13-01-2004 00:00:00 7.80083 C 5.69 g/m*3 7.8 C 0 km/h
14 14-01-2004 00:00:00 5.86667 C 4.58 g/m*3 5.87 C 0 km/h
15 15-01-2004 00:00:00 4.12083 C 4.51 g/m*3 4.12 C 0 km/h
16 16-01-2004 00:00:00 5.9575 C 4.71 g/m*3 5.96 C 0 km/h
17 17-01-2004 00:00:00 4.54333 C 4.53 g/m*3 4.54 C 0 km/h
18 18-01-2004 00:00:00 2.49583 C 3.96 g/m*3 2.5 C 0 km/h
19 19-01-2004 00:00:00 0.56471 C 3.91 g/m*3 0.56 C 0 km/h
20 20-01-2004 00:00:00 4.19833 C 4.81 g/m*3 4.2 C 0 km/h
21 21-01-2004 00:00:00 0.6125 C 3.15 g/m*3 0.61 C 0 km/h
22 22-01-2004 00:00:00 -0.92333 C 3.11 g/m*3 -0.92 C 0 km/h
23 23-01-2004 00:00:00 -0.45583 C 3 g/m*3 -0.46 C 0 km/h
24 24-01-2004 00:00:00 -0.8575 C 3.11 g/m*3 -0.86 C 0 km/h
25 25-01-2004 00:00:00 2.03167 C 4.55 g/m*3 2.03 C 0 km/h
Sensor: Nr:Datum:Temp:Abs-Feuchte:Windchill:Wind:
Aussen-T/F 26 26-01-2004 00:00:00 1.7325 C 3.9 g/m*3 1.73 C 0 km/h
27 27-01-2004 00:00:00 0.47583 C 3.24 g/m*3 0.48 C 0 km/h
28 28-01-2004 00:00:00 0.665 C 3.39 g/m*3 0.67 C 0 km/h
29 29-01-2004 00:00:00 0.295 C 3.5 g/m*3 0.3 C 0 km/h
30 30-01-2004 00:00:00 0.67083 C 3 g/m*3 0.67 C 0 km/h
31 31-01-2004 00:00:00 6.21597 C 4.37 g/m*3 6.22 C 0 km/h
32 01-02-2004 00:00:00 11.11083 C 5.85 g/m*3 11.11 C 0 km/h
33 02-02-2004 00:00:00 11.24083 C 6.81 g/m*3 11.24 C 0 km/h
34 03-02-2004 00:00:00 11.46 C 6.4 g/m*3 11.46 C 0 km/h
35 04-02-2004 00:00:00 12.275 C 5.56 g/m*3 12.28 C 0 km/h
36 05-02-2004 00:00:00 12.8325 C 5.77 g/m*3 12.83 C 0 km/h
37 06-02-2004 00:00:00 13.52417 C 5.92 g/m*3 13.52 C 0 km/h
38 07-02-2004 00:00:00 9.05417 C 4.41 g/m*3 9.05 C 0 km/h
39 08-02-2004 00:00:00 4.03583 C 4.28 g/m*3 4.04 C 0 km/h
40 09-02-2004 00:00:00 3.1225 C 3.69 g/m*3 3.12 C 0 km/h
41 10-02-2004 00:00:00 2.2525 C 3.66 g/m*3 2.25 C 0 km/h
42 11-02-2004 00:00:00 5.42417 C 5.62 g/m*3 5.42 C 0 km/h
43 12-02-2004 00:00:00 3.90932 C 4.01 g/m*3 3.91 C 0 km/h
44 13-02-2004 00:00:00 5.5876 C 5.33 g/m*3 5.59 C 0 km/h
45 14-02-2004 00:00:00 6.88083 C 5.67 g/m*3 6.88 C 0 km/h
46 15-02-2004 00:00:00 6.2625 C 5.4 g/m*3 6.26 C 0 km/h
47 16-02-2004 00:00:00 5.3425 C 4.83 g/m*3 5.34 C 0 km/h
48 17-02-2004 00:00:00 3.33417 C 4.18 g/m*3 3.33 C 0 km/h
49 18-02-2004 00:00:00 4.05167 C 4.09 g/m*3 4.05 C 0 km/h
50 19-02-2004 00:00:00 1.21833 C 3.08 g/m*3 1.22 C 0 km/h
Sensor: Nr:Datum:Temp:Abs-Feuchte:Windchill:Wind:
Aussen-T/F 51 20-02-2004 00:00:00 2.01417 C 2.7 g/m*3 2.01 C 0 km/h
52 21-02-2004 00:00:00 1.18 C 2.9 g/m*3 1.18 C 0 km/h
53 22-02-2004 00:00:00 1.965 C 3.3 g/m*3 1.97 C 0 km/h
54 23-02-2004 00:00:00 0.45868 C 3 g/m*3 0.46 C 0 km/h
55 24-02-2004 00:00:00 -0.95167 C 2.8 g/m*3 -0.95 C 0 km/h
56 25-02-2004 00:00:00 1.34583 C 3.91 g/m*3 1.35 C 0 km/h
57 26-02-2004 00:00:00 -0.21417 C 3.08 g/m*3 -0.21 C 0 km/h
58 27-02-2004 00:00:00 -1.6575 C 2.58 g/m*3 -1.66 C 0 km/h
59 28-02-2004 00:00:00 0.15508 C 2.64 g/m*3 0.16 C 0 km/h
60 29-02-2004 00:00:00 -1.085 C 2.65 g/m*3 -1.09 C 0 km/h
61 01-03-2004 00:00:00 -0.13417 C 2.61 g/m*3 -0.13 C 0 km/h
62 02-03-2004 00:00:00 3.0575 C 3.76 g/m*3 3.06 C 0 km/h
63 03-03-2004 00:00:00 3.86667 C 3.33 g/m*3 3.87 C 0 km/h
64 04-03-2004 00:00:00 3.09 C 3.39 g/m*3 3.09 C 0 km/h
65 05-03-2004 00:00:00 3.3075 C 2.85 g/m*3 3.31 C 0 km/h
66 06-03-2004 00:00:00 1.425 C 4.24 g/m*3 1.43 C 0 km/h
67 07-03-2004 00:00:00 3.68583 C 4.59 g/m*3 3.69 C 0 km/h
68 08-03-2004 00:00:00 4.06167 C 3.66 g/m*3 4.06 C 0 km/h
69 09-03-2004 00:00:00 1.66333 C 3.41 g/m*3 1.66 C 0 km/h
70 10-03-2004 00:00:00 0.88 C 3.88 g/m*3 0.88 C 0 km/h
71 11-03-2004 00:00:00 1.12857 C 4.05 g/m*3 1.13 C 0 km/h
72 12-03-2004 00:00:00 3.4975 C 3.96 g/m*3 3.5 C 0 km/h
73 13-03-2004 00:00:00 9.25417 C 5.28 g/m*3 9.25 C 0 km/h
74 14-03-2004 00:00:00 9.66417 C 4.9 g/m*3 9.66 C 0 km/h
75 15-03-2004 00:00:00 11.64167 C 5.22 g/m*3 11.64 C 0 km/h
Sensor: Nr:Datum:Temp:Abs-Feuchte:Windchill:Wind:
Aussen-T/F 76 16-03-2004 00:00:00 12.85583 C 6.54 g/m*3 12.86 C 0 km/h
77 17-03-2004 00:00:00 12.58333 C 6.62 g/m*3 12.58 C 0 km/h
78 18-03-2004 00:00:00 14.18 C 7.14 g/m*3 14.18 C 0 km/h
79 19-03-2004 00:00:00 12.33333 C 6.93 g/m*3 12.33 C 0 km/h
80 20-03-2004 00:00:00 12.1875 C 7.53 g/m*3 12.19 C 0 km/h
81 21-03-2004 00:00:00 9.85583 C 5.92 g/m*3 9.86 C 0 km/h
82 22-03-2004 00:00:00 6.47917 C 5.54 g/m*3 6.48 C 0 km/h
83 23-03-2004 00:00:00 5.15966 C 5.49 g/m*3 5.16 C 0 km/h
84 24-03-2004 00:00:00 5.735 C 4.8 g/m*3 5.74 C 0 km/h
85 25-03-2004 00:00:00 4.39083 C 4.22 g/m*3 4.39 C 0 km/h
86 26-03-2004 00:00:00 2.8575 C 3.77 g/m*3 2.86 C 0 km/h
87 27-03-2004 00:00:00 2.76167 C 3.42 g/m*3 2.76 C 0 km/h
88 28-03-2004 00:00:00 4.98174 C 3.63 g/m*3 4.98 C 0 km/h
89 29-03-2004 00:00:00 7.27 C 4.13 g/m*3 7.27 C 0 km/h
90 30-03-2004 00:00:00 11.1075 C 4.45 g/m*3 11.11 C 0 km/h
91 31-03-2004 00:00:00 11.83 C 5.02 g/m*3 11.83 C 0 km/h
92 01-04-2004 00:00:00 14.11083 C 5.67 g/m*3 14.11 C 0 km/h
93 02-04-2004 00:00:00 13.71083 C 6.01 g/m*3 13.71 C 0 km/h
94 03-04-2004 00:00:00 12.5275 C 7.01 g/m*3 12.53 C 0 km/h
95 04-04-2004 00:00:00 12.14333 C 5.94 g/m*3 12.14 C 0 km/h
96 05-04-2004 00:00:00 8.31176 C 5.82 g/m*3 8.31 C 0 km/h
97 06-04-2004 00:00:00 6.33333 C 5.48 g/m*3 6.33 C 0 km/h
98 07-04-2004 00:00:00 5.33417 C 5.38 g/m*3 5.33 C 0 km/h
99 08-04-2004 00:00:00 6.565 C 5.43 g/m*3 6.57 C 0 km/h
100 09-04-2004 00:00:00 7.14583 C 5.29 g/m*3 7.15 C 0 km/h
Sensor: Nr:Datum:Temp:Abs-Feuchte:Windchill:Wind:
Aussen-T/F 101 10-04-2004 00:00:00 7.875 C 5.71 g/m*3 7.88 C 0 km/h
102 11-04-2004 00:00:00 7.40667 C 5.06 g/m*3 7.41 C 0 km/h
103 12-04-2004 00:00:00 8.5875 C 4.97 g/m*3 8.59 C 0 km/h
104 13-04-2004 00:00:00 10.13917 C 5.92 g/m*3 10.14 C 0 km/h
105 14-04-2004 00:00:00 11.98667 C 5.46 g/m*3 11.99 C 0 km/h
106 15-04-2004 00:00:00 11.55833 C 5.32 g/m*3 11.56 C 0 km/h
107 16-04-2004 00:00:00 14.20083 C 6.04 g/m*3 14.2 C 0 km/h
108 17-04-2004 00:00:00 14.72521 C 6.1 g/m*3 14.73 C 0 km/h
109 18-04-2004 00:00:00 12.97583 C 6.27 g/m*3 12.98 C 0 km/h
110 19-04-2004 00:00:00 10.14917 C 4.68 g/m*3 10.15 C 0 km/h
111 20-04-2004 00:00:00 10.01083 C 6.42 g/m*3 10.01 C 0 km/h
112 21-04-2004 00:00:00 14.15667 C 7.93 g/m*3 14.16 C 0 km/h
113 22-04-2004 00:00:00 16.29917 C 8.77 g/m*3 16.3 C 0 km/h
114 23-04-2004 00:00:00 13.10417 C 8.1 g/m*3 13.1 C 0 km/h
115 24-04-2004 00:00:00 12.5125 C 6.29 g/m*3 12.51 C 0 km/h
116 25-04-2004 00:00:00 12.58083 C 6.49 g/m*3 12.58 C 0 km/h
117 26-04-2004 00:00:00 14.825 C 6.6 g/m*3 14.83 C 0 km/h
118 27-04-2004 00:00:00 16.15917 C 7.23 g/m*3 16.16 C 0 km/h
119 28-04-2004 00:00:00 16.0125 C 8.73 g/m*3 16.01 C 0 km/h
120 29-04-2004 00:00:00 16.4958 C 9.99 g/m*3 16.5 C 0 km/h
121 30-04-2004 00:00:00 18.50167 C 9.7 g/m*3 18.5 C 0 km/h
122 01-05-2004 00:00:00 14.56639 C 10 g/m*3 14.57 C 0 km/h
123 02-05-2004 00:00:00 15.70083 C 8.35 g/m*3 15.7 C 0 km/h
124 03-05-2004 00:00:00 14.50667 C 7.67 g/m*3 14.51 C 0 km/h
125 04-05-2004 00:00:00 14.02167 C 7.33 g/m*3 14.02 C 0 km/h
Sensor: Nr:Datum:Temp:Abs-Feuchte:Windchill:Wind:
Aussen-T/F 126 05-05-2004 00:00:00 12.41083 C 5.81 g/m*3 12.41 C 0 km/h
127 06-05-2004 00:00:00 10.04167 C 6.93 g/m*3 10.04 C 0 km/h
128 07-05-2004 00:00:00 8.415 C 7.62 g/m*3 8.41 C 0 km/h
129 08-05-2004 00:00:00 7.58083 C 6.96 g/m*3 7.58 C 0 km/h
130 09-05-2004 00:00:00 10.3025 C 7.31 g/m*3 10.3 C 0 km/h
131 10-05-2004 00:00:00 12.86 C 8.86 g/m*3 12.86 C 0 km/h
132 11-05-2004 00:00:00 14.43866 C 8.64 g/m*3 14.44 C 0 km/h
133 12-05-2004 00:00:00 12.22583 C 6.55 g/m*3 12.23 C 0 km/h
134 13-05-2004 00:00:00 11.9225 C 6.73 g/m*3 11.92 C 0 km/h
135 14-05-2004 00:00:00 15.3875 C 7.71 g/m*3 15.39 C 0 km/h
136 15-05-2004 00:00:00 14.34333 C 7.71 g/m*3 14.34 C 0 km/h
137 16-05-2004 00:00:00 16.78167 C 8.21 g/m*3 16.78 C 0 km/h
138 17-05-2004 00:00:00 17.8875 C 8.72 g/m*3 17.89 C 0 km/h
139 18-05-2004 00:00:00 18.75917 C 8.84 g/m*3 18.76 C 0 km/h
140 19-05-2004 00:00:00 19.56 C 9.24 g/m*3 19.56 C 0 km/h
141 20-05-2004 00:00:00 19.53 C 8.61 g/m*3 19.53 C 0 km/h
142 21-05-2004 00:00:00 13.19833 C 8 g/m*3 13.2 C 0 km/h
143 22-05-2004 00:00:00 10.73083 C 5.07 g/m*3 10.73 C 0 km/h
144 23-05-2004 00:00:00 11.5479 C 5.05 g/m*3 11.55 C 0 km/h
145 24-05-2004 00:00:00 11.78 C 5.65 g/m*3 11.78 C 0 km/h
146 25-05-2004 00:00:00 14.72583 C 6.62 g/m*3 14.73 C 0 km/h
147 26-05-2004 00:00:00 14.9725 C 6.13 g/m*3 14.97 C 0 km/h
148 27-05-2004 00:00:00 12.81083 C 5.6 g/m*3 12.81 C 0 km/h
149 28-05-2004 00:00:00 13.97333 C 6.32 g/m*3 13.97 C 0 km/h
150 29-05-2004 00:00:00 17.0438 C 6.95 g/m*3 17.04 C 0 km/h
Sensor: Nr:Datum:Temp:Abs-Feuchte:Windchill:Wind:
Aussen-T/F 151 30-05-2004 00:00:00 18.69077 C 7.26 g/m*3 18.69 C 0 km/h
152 31-05-2004 00:00:00 15.58167 C 10.4 g/m*3 15.58 C 0 km/h
153 01-06-2004 00:00:00 16.40168 C 9.4 g/m*3 16.4 C 0 km/h
154 02-06-2004 00:00:00 14.86303 C 9.85 g/m*3 14.86 C 0 km/h
155 03-06-2004 00:00:00 16.36167 C 10.23 g/m*3 16.36 C 0 km/h
156 04-06-2004 00:00:00 13.82583 C 10.17 g/m*3 13.83 C 0 km/h
157 05-06-2004 00:00:00 14.33583 C 9.13 g/m*3 14.34 C 0 km/h
158 06-06-2004 00:00:00 16.84667 C 9.18 g/m*3 16.85 C 0 km/h
159 07-06-2004 00:00:00 20.69333 C 9.87 g/m*3 20.69 C 0 km/h
160 08-06-2004 00:00:00 23.6575 C 11.14 g/m*3 23.66 C 0 km/h
161 09-06-2004 00:00:00 24.735 C 13.13 g/m*3 24.74 C 0 km/h
162 10-06-2004 00:00:00 21.21417 C 14.55 g/m*3 21.21 C 0 km/h
163 11-06-2004 00:00:00 18.8725 C 12.84 g/m*3 18.87 C 0 km/h
164 12-06-2004 00:00:00 15.64417 C 9.74 g/m*3 15.64 C 0 km/h
165 13-06-2004 00:00:00 15.35042 C 9.24 g/m*3 15.35 C 0 km/h
166 14-06-2004 00:00:00 17.5175 C 9.03 g/m*3 17.52 C 0 km/h
167 15-06-2004 00:00:00 20.5725 C 10.96 g/m*3 20.57 C 0 km/h
168 16-06-2004 00:00:00 17.205 C 7.51 g/m*3 17.2 C 0 km/h
169 17-06-2004 00:00:00 18.3025 C 8.69 g/m*3 18.3 C 0 km/h
170 18-06-2004 00:00:00 15.54 C 9.61 g/m*3 15.54 C 0 km/h
171 19-06-2004 00:00:00 14.39167 C 8.28 g/m*3 14.39 C 0 km/h
172 20-06-2004 00:00:00 14.56583 C 7.37 g/m*3 14.57 C 0 km/h
173 21-06-2004 00:00:00 14.90333 C 8.02 g/m*3 14.9 C 0 km/h
174 22-06-2004 00:00:00 15.64583 C 10.33 g/m*3 15.65 C 0 km/h
175 23-06-2004 00:00:00 19.17083 C 10.61 g/m*3 19.17 C 0 km/h
Sensor: Nr:Datum:Temp:Abs-Feuchte:Windchill:Wind:
Aussen-T/F 176 24-06-2004 00:00:00 16.3775 C 7.16 g/m*3 16.38 C 0 km/h
177 25-06-2004 00:00:00 14.59167 C 7.8 g/m*3 14.59 C 0 km/h
178 26-06-2004 00:00:00 16.39328 C 8.74 g/m*3 16.39 C 0 km/h
179 27-06-2004 00:00:00 20.93475 C 11.55 g/m*3 20.93 C 0 km/h
180 28-06-2004 00:00:00 19.74667 C 7.96 g/m*3 19.75 C 0 km/h
181 29-06-2004 00:00:00 18.54833 C 8.3 g/m*3 18.55 C 0 km/h
182 30-06-2004 00:00:00 20.9875 C 9.12 g/m*3 20.99 C 0 km/h
183 01-07-2004 00:00:00 18.20084 C 8.16 g/m*3 18.2 C 0 km/h
184 02-07-2004 00:00:00 15.81417 C 9.1 g/m*3 15.81 C 0 km/h
185 03-07-2004 00:00:00 15.91333 C 8.88 g/m*3 15.91 C 0 km/h
186 04-07-2004 00:00:00 15.28 C 9.43 g/m*3 15.28 C 0 km/h
187 05-07-2004 00:00:00 18.50083 C 10.14 g/m*3 18.5 C 0 km/h
188 06-07-2004 00:00:00 19.60833 C 8.72 g/m*3 19.61 C 0 km/h
189 07-07-2004 00:00:00 18.90167 C 10.22 g/m*3 18.9 C 0 km/h
190 08-07-2004 00:00:00 18.76833 C 11.9 g/m*3 18.77 C 0 km/h
191 09-07-2004 00:00:00 15.12333 C 10.24 g/m*3 15.12 C 0 km/h
192 10-07-2004 00:00:00 14.9525 C 8.82 g/m*3 14.95 C 0 km/h
193 11-07-2004 00:00:00 14.95417 C 8.32 g/m*3 14.95 C 0 km/h
194 12-07-2004 00:00:00 14.17 C 9.42 g/m*3 14.17 C 0 km/h
195 13-07-2004 00:00:00 14.57815 C 8.55 g/m*3 14.58 C 0 km/h
196 14-07-2004 00:00:00 16.24083 C 9.35 g/m*3 16.24 C 0 km/h
197 15-07-2004 00:00:00 19.03167 C 12.77 g/m*3 19.03 C 0 km/h
198 16-07-2004 00:00:00 22.7475 C 12.5 g/m*3 22.75 C 0 km/h
199 17-07-2004 00:00:00 21.68 C 13.47 g/m*3 21.68 C 0 km/h
200 18-07-2004 00:00:00 19.98843 C 13.88 g/m*3 19.99 C 0 km/h
Sensor: Nr:Datum:Temp:Abs-Feuchte:Windchill:Wind:
Aussen-T/F 201 19-07-2004 00:00:00 21.74667 C 12.55 g/m*3 21.75 C 0 km/h
202 20-07-2004 00:00:00 19.855 C 12.88 g/m*3 19.86 C 0 km/h
203 21-07-2004 00:00:00 22.40083 C 13.38 g/m*3 22.4 C 0 km/h
204 22-07-2004 00:00:00 24.60504 C 14.07 g/m*3 24.61 C 0 km/h
205 23-07-2004 00:00:00 23.33 C 14.72 g/m*3 23.33 C 0 km/h
206 24-07-2004 00:00:00 22.0075 C 10.74 g/m*3 22.01 C 0 km/h
207 25-07-2004 00:00:00 18.13833 C 10.05 g/m*3 18.14 C 0 km/h
208 26-07-2004 00:00:00 16.53583 C 10.88 g/m*3 16.54 C 0 km/h
209 27-07-2004 00:00:00 18.31092 C 10.02 g/m*3 18.31 C 0 km/h
210 28-07-2004 00:00:00 20.28583 C 9.5 g/m*3 20.29 C 0 km/h
211 29-07-2004 00:00:00 21.75917 C 9.6 g/m*3 21.76 C 0 km/h
212 30-07-2004 00:00:00 22.845 C 10.59 g/m*3 22.85 C 0 km/h
213 31-07-2004 00:00:00 23.185 C 12.07 g/m*3 23.19 C 0 km/h
214 01-08-2004 00:00:00 23.30333 C 12.07 g/m*3 23.3 C 0 km/h
215 02-08-2004 00:00:00 23.80917 C 11.1 g/m*3 23.81 C 0 km/h
216 03-08-2004 00:00:00 24.1975 C 10.83 g/m*3 24.2 C 0 km/h
217 04-08-2004 00:00:00 23.40756 C 13.04 g/m*3 23.41 C 0 km/h
218 05-08-2004 00:00:00 25.28167 C 12.69 g/m*3 25.28 C 0 km/h
219 06-08-2004 00:00:00 25.0625 C 12.09 g/m*3 25.06 C 0 km/h
220 07-08-2004 00:00:00 24.03167 C 14.41 g/m*3 24.03 C 0 km/h
221 08-08-2004 00:00:00 24.36 C 13.84 g/m*3 24.36 C 0 km/h
222 09-08-2004 00:00:00 25.4775 C 10.89 g/m*3 25.48 C 0 km/h
223 10-08-2004 00:00:00 22.66333 C 11.69 g/m*3 22.66 C 0 km/h
224 11-08-2004 00:00:00 22.42804 C 14.99 g/m*3 22.43 C 0 km/h
225 12-08-2004 00:00:00 20.15417 C 13.25 g/m*3 20.15 C 0 km/h
Sensor: Nr:Datum:Temp:Abs-Feuchte:Windchill:Wind:
Aussen-T/F 226 13-08-2004 00:00:00 17.9625 C 11.42 g/m*3 17.96 C 0 km/h
227 14-08-2004 00:00:00 18.08333 C 12.27 g/m*3 18.08 C 0 km/h
228 15-08-2004 00:00:00 21.52708 C 11.93 g/m*3 21.53 C 0 km/h
229 16-08-2004 00:00:00 20.10625 C 12.61 g/m*3 20.11 C 0 km/h
230 17-08-2004 00:00:00 20.58958 C 13.87 g/m*3 20.59 C 0 km/h
231 18-08-2004 00:00:00 22.67292 C 13.2 g/m*3 22.67 C 0 km/h
232 19-08-2004 00:00:00 21.05417 C 11.68 g/m*3 21.05 C 0 km/h
233 20-08-2004 00:00:00 18.89583 C 10.4 g/m*3 18.9 C 0 km/h
234 21-08-2004 00:00:00 15.52708 C 10.53 g/m*3 15.53 C 0 km/h
235 22-08-2004 00:00:00 16.41042 C 9.01 g/m*3 16.41 C 0 km/h
236 23-08-2004 00:00:00 16.42708 C 10.17 g/m*3 16.43 C 0 km/h
237 24-08-2004 00:00:00 17.42083 C 11.51 g/m*3 17.42 C 0 km/h
238 25-08-2004 00:00:00 16.20847 C 10.15 g/m*3 16.21 C 0 km/h
239 26-08-2004 00:00:00 16.76083 C 9.98 g/m*3 16.76 C 0 km/h
240 27-08-2004 00:00:00 15.82269 C 9.42 g/m*3 15.82 C 0 km/h
241 28-08-2004 00:00:00 17.58 C 12.34 g/m*3 17.58 C 0 km/h
242 29-08-2004 00:00:00 18.84917 C 11.59 g/m*3 18.85 C 0 km/h
243 30-08-2004 00:00:00 15.81333 C 10.43 g/m*3 15.81 C 0 km/h
244 31-08-2004 00:00:00 14.84333 C 8.88 g/m*3 14.84 C 0 km/h
245 01-09-2004 00:00:00 15.91667 C 9.07 g/m*3 15.92 C 0 km/h
246 02-09-2004 00:00:00 17.21429 C 9.62 g/m*3 17.21 C 0 km/h
247 03-09-2004 00:00:00 20.0275 C 11.76 g/m*3 20.03 C 0 km/h
248 04-09-2004 00:00:00 21.15083 C 12.63 g/m*3 21.15 C 0 km/h
249 05-09-2004 00:00:00 21.63833 C 12.6 g/m*3 21.64 C 0 km/h
250 06-09-2004 00:00:00 20.35 C 10.92 g/m*3 20.35 C 0 km/h
Sensor: Nr:Datum:Temp:Abs-Feuchte:Windchill:Wind:
Aussen-T/F 251 07-09-2004 00:00:00 21.00167 C 11.07 g/m*3 21 C 0 km/h
252 08-09-2004 00:00:00 20.15294 C 10.46 g/m*3 20.15 C 0 km/h
253 09-09-2004 00:00:00 18.48167 C 8.08 g/m*3 18.48 C 0 km/h
254 10-09-2004 00:00:00 17.9825 C 8.26 g/m*3 17.98 C 0 km/h
255 11-09-2004 00:00:00 20.54583 C 12.35 g/m*3 20.55 C 0 km/h
256 12-09-2004 00:00:00 17.1475 C 9.04 g/m*3 17.15 C 0 km/h
257 13-09-2004 00:00:00 17.07 C 8.88 g/m*3 17.07 C 0 km/h
258 14-09-2004 00:00:00 17.45462 C 8.44 g/m*3 17.45 C 0 km/h
259 15-09-2004 00:00:00 14.54333 C 8.16 g/m*3 14.54 C 0 km/h
260 16-09-2004 00:00:00 12.64 C 7.27 g/m*3 12.64 C 0 km/h
261 17-09-2004 00:00:00 13.2175 C 7.39 g/m*3 13.22 C 0 km/h
262 18-09-2004 00:00:00 15.71667 C 8.66 g/m*3 15.72 C 0 km/h
263 19-09-2004 00:00:00 16.38 C 10.18 g/m*3 16.38 C 0 km/h
264 20-09-2004 00:00:00 13.69833 C 7.61 g/m*3 13.7 C 0 km/h
265 21-09-2004 00:00:00 15.01167 C 6.9 g/m*3 15.01 C 0 km/h
266 22-09-2004 00:00:00 12.50168 C 7.63 g/m*3 12.5 C 0 km/h
267 23-09-2004 00:00:00 13.44917 C 10.41 g/m*3 13.45 C 0 km/h
268 24-09-2004 00:00:00 12.08833 C 7.68 g/m*3 12.09 C 0 km/h
269 25-09-2004 00:00:00 12.41167 C 7.54 g/m*3 12.41 C 0 km/h
270 26-09-2004 00:00:00 12.71667 C 8.34 g/m*3 12.72 C 0 km/h
271 27-09-2004 00:00:00 13.985 C 9.75 g/m*3 13.99 C 0 km/h
272 28-09-2004 00:00:00 15.85833 C 10.38 g/m*3 15.86 C 0 km/h
273 29-09-2004 00:00:00 15.4525 C 8.97 g/m*3 15.45 C 0 km/h
274 30-09-2004 00:00:00 13.13583 C 8.54 g/m*3 13.14 C 0 km/h
275 01-10-2004 00:00:00 15.1775 C 9.42 g/m*3 15.18 C 0 km/h
Sensor: Nr:Datum:Temp:Abs-Feuchte:Windchill:Wind:
Aussen-T/F 276 02-10-2004 00:00:00 14.82333 C 9.08 g/m*3 14.82 C 0 km/h
277 03-10-2004 00:00:00 13.56417 C 8.33 g/m*3 13.56 C 0 km/h
278 04-10-2004 00:00:00 16.06303 C 9.8 g/m*3 16.06 C 0 km/h
279 05-10-2004 00:00:00 19.11667 C 11.19 g/m*3 19.12 C 0 km/h
280 06-10-2004 00:00:00 14.425 C 9.96 g/m*3 14.43 C 0 km/h
281 07-10-2004 00:00:00 11.63417 C 7.67 g/m*3 11.63 C 0 km/h
282 08-10-2004 00:00:00 9.55667 C 7.63 g/m*3 9.56 C 0 km/h
283 09-10-2004 00:00:00 10.71833 C 7.51 g/m*3 10.72 C 0 km/h
284 10-10-2004 00:00:00 9.49167 C 6.16 g/m*3 9.49 C 0 km/h
285 11-10-2004 00:00:00 8.54167 C 5.21 g/m*3 8.54 C 0 km/h
286 12-10-2004 00:00:00 8.30333 C 5.07 g/m*3 8.3 C 0 km/h
287 13-10-2004 00:00:00 9.11167 C 6.86 g/m*3 9.11 C 0 km/h
288 14-10-2004 00:00:00 11.28417 C 8.04 g/m*3 11.28 C 0 km/h
289 15-10-2004 00:00:00 10.13917 C 7.5 g/m*3 10.14 C 0 km/h
290 16-10-2004 00:00:00 7.7475 C 6.95 g/m*3 7.75 C 0 km/h
291 17-10-2004 00:00:00 8.67143 C 6.95 g/m*3 8.67 C 0 km/h
292 18-10-2004 00:00:00 9.92417 C 6.91 g/m*3 9.92 C 0 km/h
293 19-10-2004 00:00:00 8.205 C 7.02 g/m*3 8.21 C 0 km/h
294 20-10-2004 00:00:00 12.1075 C 9.58 g/m*3 12.11 C 0 km/h
295 21-10-2004 00:00:00 14.14083 C 8.35 g/m*3 14.14 C 0 km/h
296 22-10-2004 00:00:00 10.405 C 7.51 g/m*3 10.41 C 0 km/h
297 23-10-2004 00:00:00 14.51083 C 8.98 g/m*3 14.51 C 0 km/h
298 24-10-2004 00:00:00 15.26 C 10.21 g/m*3 15.26 C 0 km/h
299 25-10-2004 00:00:00 14.77917 C 8.83 g/m*3 14.78 C 0 km/h
300 26-10-2004 00:00:00 10.89917 C 7.87 g/m*3 10.9 C 0 km/h
Sensor: Nr:Datum:Temp:Abs-Feuchte:Windchill:Wind:
Aussen-T/F 301 27-10-2004 00:00:00 9.63083 C 7.31 g/m*3 9.63 C 0 km/h
302 28-10-2004 00:00:00 12.44833 C 8.74 g/m*3 12.45 C 0 km/h
303 29-10-2004 00:00:00 12.78908 C 9.56 g/m*3 12.79 C 0 km/h
304 30-10-2004 00:00:00 10.50417 C 8.76 g/m*3 10.5 C 0 km/h
305 31-10-2004 00:00:00 10.9848 C 8.21 g/m*3 10.98 C 0 km/h
306 01-11-2004 00:00:00 9.905 C 7.35 g/m*3 9.9 C 0 km/h
307 02-11-2004 00:00:00 10.325 C 7.68 g/m*3 10.33 C 0 km/h
308 03-11-2004 00:00:00 10.58917 C 8.6 g/m*3 10.59 C 0 km/h
309 04-11-2004 00:00:00 10.43417 C 9.03 g/m*3 10.43 C 0 km/h
310 05-11-2004 00:00:00 8.9725 C 6.72 g/m*3 8.97 C 0 km/h
311 06-11-2004 00:00:00 7.45417 C 6.76 g/m*3 7.45 C 0 km/h
312 07-11-2004 00:00:00 5.835 C 6.43 g/m*3 5.84 C 0 km/h
313 08-11-2004 00:00:00 3.9825 C 5.85 g/m*3 3.98 C 0 km/h
314 09-11-2004 00:00:00 2.1375 C 4.89 g/m*3 2.14 C 0 km/h
315 10-11-2004 00:00:00 1.37667 C 4.98 g/m*3 1.38 C 0 km/h
316 11-11-2004 00:00:00 3.1563 C 5.18 g/m*3 3.16 C 0 km/h
317 12-11-2004 00:00:00 4.21333 C 5.29 g/m*3 4.21 C 0 km/h
318 13-11-2004 00:00:00 4.75583 C 5.38 g/m*3 4.76 C 0 km/h
319 14-11-2004 00:00:00 3.52333 C 4.99 g/m*3 3.52 C 0 km/h
320 15-11-2004 00:00:00 2.90583 C 4.99 g/m*3 2.91 C 0 km/h
321 16-11-2004 00:00:00 6.5475 C 5.87 g/m*3 6.55 C 0 km/h
322 17-11-2004 00:00:00 9.91917 C 7.05 g/m*3 9.92 C 0 km/h
323 18-11-2004 00:00:00 9.40583 C 7.16 g/m*3 9.41 C 0 km/h
324 19-11-2004 00:00:00 3.91083 C 4.5 g/m*3 3.91 C 0 km/h
325 20-11-2004 00:00:00 2.23583 C 3.44 g/m*3 2.24 C 0 km/h
Sensor: Nr:Datum:Temp:Abs-Feuchte:Windchill:Wind:
Aussen-T/F 326 21-11-2004 00:00:00 0.33333 C 3.81 g/m*3 0.33 C 0 km/h
327 22-11-2004 00:00:00 8.65583 C 6.81 g/m*3 8.66 C 0 km/h
328 23-11-2004 00:00:00 7.97563 C 6.86 g/m*3 7.98 C 0 km/h
329 24-11-2004 00:00:00 1.78417 C 4.76 g/m*3 1.78 C 0 km/h
330 25-11-2004 00:00:00 -0.49667 C 4 g/m*3 -0.5 C 0 km/h
331 26-11-2004 00:00:00 3.6775 C 4.77 g/m*3 3.68 C 0 km/h
332 27-11-2004 00:00:00 7.69167 C 6.37 g/m*3 7.69 C 0 km/h
333 28-11-2004 00:00:00 8.34417 C 6.1 g/m*3 8.34 C 0 km/h
334 29-11-2004 00:00:00 5.86583 C 5.62 g/m*3 5.87 C 0 km/h
335 30-11-2004 00:00:00 2.81167 C 4.91 g/m*3 2.81 C 0 km/h
336 01-12-2004 00:00:00 4.71167 C 5.16 g/m*3 4.71 C 0 km/h
337 02-12-2004 00:00:00 4.24333 C 4.84 g/m*3 4.24 C 0 km/h
338 03-12-2004 00:00:00 3.0975 C 5.28 g/m*3 3.1 C 0 km/h
339 04-12-2004 00:00:00 1.99667 C 4.6 g/m*3 2 C 0 km/h
340 05-12-2004 00:00:00 1.255 C 4.17 g/m*3 1.25 C 0 km/h
341 06-12-2004 00:00:00 4.54622 C 5.31 g/m*3 4.55 C 0 km/h
342 07-12-2004 00:00:00 4.37667 C 4.85 g/m*3 4.38 C 0 km/h
343 08-12-2004 00:00:00 5.02833 C 5.01 g/m*3 5.03 C 0 km/h
344 09-12-2004 00:00:00 -0.1025 C 3.89 g/m*3 -0.1 C 0 km/h
345 10-12-2004 00:00:00 -3.5675 C 3.26 g/m*3 -3.57 C 0 km/h
346 11-12-2004 00:00:00 -2.575 C 3.5 g/m*3 -2.58 C 0 km/h
347 12-12-2004 00:00:00 -1.58833 C 3.25 g/m*3 -1.59 C 0 km/h
348 13-12-2004 00:00:00 -1.33917 C 3.22 g/m*3 -1.34 C 0 km/h
349 14-12-2004 00:00:00 -2.87083 C 3.12 g/m*3 -2.87 C 0 km/h
350 15-12-2004 00:00:00 -3.50917 C 3.26 g/m*3 -3.51 C 0 km/h
Sensor: Nr:Datum:Temp:Abs-Feuchte:Windchill:Wind:
Aussen-T/F 351 16-12-2004 00:00:00 -0.65333 C 4.04 g/m*3 -0.65 C 0 km/h
352 17-12-2004 00:00:00 5.17667 C 5.6 g/m*3 5.18 C 0 km/h
353 18-12-2004 00:00:00 3.6479 C 4.61 g/m*3 3.65 C 0 km/h
354 19-12-2004 00:00:00 1.25083 C 4.26 g/m*3 1.25 C 0 km/h
355 20-12-2004 00:00:00 -2.95667 C 3.26 g/m*3 -2.96 C 0 km/h
356 21-12-2004 00:00:00 -6.37167 C 2.46 g/m*3 -6.37 C 0 km/h
357 22-12-2004 00:00:00 -1.36667 C 3.44 g/m*3 -1.37 C 0 km/h
358 23-12-2004 00:00:00 5.19667 C 5.57 g/m*3 5.2 C 0 km/h
359 24-12-2004 00:00:00 8.21833 C 6.45 g/m*3 8.22 C 0 km/h
360 25-12-2004 00:00:00 6.31333 C 5.5 g/m*3 6.31 C 0 km/h
361 26-12-2004 00:00:00 1.5975 C 4.62 g/m*3 1.6 C 0 km/h
362 27-12-2004 00:00:00 1.34167 C 3.71 g/m*3 1.34 C 0 km/h
363 28-12-2004 00:00:00 0.25917 C 3.75 g/m*3 0.26 C 0 km/h
364 29-12-2004 00:00:00 2.37333 C 4.75 g/m*3 2.37 C 0 km/h
365 30-12-2004 00:00:00 3.3325 C 4.63 g/m*3 3.33 C 0 km/h
366 31-12-2004 00:00:00 6.41333 C 5.98 g/m*3 6.41 C 0 km/h

Maximal/Minimal-Werte vom 01.01.2004 - 31.12.2004

Sensor Min Max Avg
Temp
(Aussen-T/F)
-9.4 °C
03-01-2004  05:50:00
34.1 °C
05-08-2004  17:25:01
10.78 °C
Abs-Feuchte
(Aussen-T/F)
2.04 g/m*3
02-01-2004  00:00:00
14.99 g/m*3
11-08-2004  00:00:00
7.22 g/m*3
Windchill
(Aussen-T/F)
-6.37 C
21-12-2004  00:00:00
25.48 C
09-08-2004  00:00:00
10.93 C

Die Daten stammen von einer Davis Vantage Pro 2 Wetter-Station und werden unter Linux mit der Software wview2wettercgi und aufbereitet. Alle Angaben erfolgen ohne Gewähr für ihre Vollständigkeit oder Richtigkeit.
Kontakt: Rainer Krienke krienke@uni-koblenz.de . Meine Webseiten an der Uni Koblenz oder privat.
Version: $Revision: 0.78 $